Huvudsida
METAR-TAF:

METAR-TAF

Flygplatser :

Şanlıurfa, Turkiet

latitud: 37-27N, longitud: 38-54E, höjd: 823 m

Aktuellt väderrapport

Denna rapport gjordes för 32 minuter sedan, klockan 02:50 UTC
Vind 8 kt från nord
Temperatur 23°C
Fuktighet 44%
Tryck 1008 hPa
Sikt 10 km eller mer
Inga moln under 1 500 m eller inga cumulonimbus

METAR: LTCS 120250Z 36008KT CAVOK 23/10 Q1008 RMK RWY22 02006KT SKC

Tid: 06:22 (03:22 UTC)

Väderprognos

Denna rapport gjordes för 4 timmar och 42 minuter sedan, klockan 22:40 UTC
Prognos gäller från 12 kl. 00 UTC till 12 kl. 24 UTC
Vind 9 kt från nordväst
Sikt 10 km eller mer
Inga moln under 1 500 m eller inga cumulonimbus
Sannolikhet 30% :
Temporärt
från 12 kl. 03 UTC till 12 kl. 07 UTC
Vind 15 kt från nord/nordväst i byarna ända upp till 25 kt

TAF: LTCS 112240Z 1200/1224 31009KT CAVOK PROB30 TEMPO 1203/1207 34015G25KT

Aktuella väderrapporter och prognoser från 4000 flygplatser (METAR- och TAF-rapporter).

De tillgängliga stationerna syns som gula och röda prickar på kartan.

För musen över prickarna för att se namnen på stationerna.

Klicka sedan för att få väderrapporter och prognoser.

För att ändra kartan: Klicka på de gröna knapparna med ett svart kors på för att zooma in; den gröna knappen med ett streck på för att zooma ut; eller på de gröna pilarna för angränsande kartor.


METAR-TAF: